createdAt,value
2019-04-21T00:01:55.959Z,60.92
2019-04-21T00:04:38.116Z,61.42
2019-04-21T00:07:19.366Z,61.48
2019-04-21T00:09:58.219Z,61.68
2019-04-21T00:12:40.562Z,61.65
2019-04-21T00:14:56.829Z,61.35
2019-04-21T00:17:19.703Z,61.18
2019-04-21T00:19:59.424Z,61.54
2019-04-21T00:22:37.707Z,61.65
2019-04-21T00:25:16.306Z,61.83
2019-04-21T00:27:55.216Z,62.17
2019-04-21T00:30:30.017Z,62.80
2019-04-21T00:32:54.083Z,61.48
2019-04-21T00:35:19.577Z,45.71
2019-04-21T00:38:08.218Z,46.04
2019-04-21T00:40:50.500Z,48.38
2019-04-21T00:43:18.120Z,50.07
2019-04-21T00:45:43.484Z,51.44
2019-04-21T00:48:29.851Z,52.60
2019-04-21T00:51:16.225Z,53.51
2019-04-21T00:53:51.226Z,54.60
2019-04-21T00:56:36.595Z,55.11
2019-04-21T00:58:56.155Z,55.90
2019-04-21T01:01:26.817Z,56.71
2019-04-21T01:03:57.693Z,57.28
2019-04-21T01:06:35.229Z,58.03
2019-04-21T01:09:02.629Z,58.66
2019-04-21T01:11:37.660Z,59.25
2019-04-21T01:14:12.077Z,60.00
2019-04-21T01:16:45.910Z,59.92
2019-04-21T01:19:17.309Z,60.47
2019-04-21T01:21:31.251Z,60.92
2019-04-21T01:24:11.806Z,61.61
2019-04-21T01:26:47.084Z,61.75
2019-04-21T01:29:27.999Z,61.80
2019-04-21T01:32:13.281Z,62.32
2019-04-21T01:34:39.577Z,62.51
2019-04-21T01:37:04.613Z,61.21
2019-04-21T01:39:48.506Z,45.73
2019-04-21T01:42:18.351Z,45.98
2019-04-21T01:44:53.196Z,48.63
2019-04-21T01:47:26.230Z,50.52
2019-04-21T01:49:52.715Z,51.87
2019-04-21T01:52:43.862Z,52.96
2019-04-21T01:55:20.720Z,53.93
2019-04-21T01:57:49.330Z,54.95
2019-04-21T02:00:19.066Z,55.66
2019-04-21T02:03:18.733Z,56.46
2019-04-21T02:05:37.478Z,57.13
2019-04-21T02:08:05.106Z,57.87
2019-04-21T02:10:47.996Z,58.72
2019-04-21T02:13:11.828Z,59.08
2019-04-21T02:15:48.817Z,59.50
2019-04-21T02:18:24.792Z,59.77
2019-04-21T02:20:45.657Z,60.26
2019-04-21T02:23:39.469Z,60.86
2019-04-21T02:26:03.850Z,61.65
2019-04-21T02:28:50.032Z,62.11
2019-04-21T02:31:28.645Z,62.66
2019-04-21T02:34:04.536Z,61.14
2019-04-21T02:39:12.298Z,49.10
2019-04-21T02:41:45.630Z,51.69
2019-04-21T02:44:08.652Z,53.22
2019-04-21T02:49:22.823Z,55.46
2019-04-21T02:57:04.871Z,58.77
2019-04-21T02:59:33.963Z,59.27
2019-04-21T03:02:22.769Z,59.63
2019-04-21T03:04:57.283Z,60.05
2019-04-21T03:07:50.238Z,60.60
2019-04-21T03:09:59.116Z,61.34
2019-04-21T03:12:53.062Z,62.21
2019-04-21T03:15:18.170Z,62.31
2019-04-21T03:17:49.857Z,45.72
2019-04-21T03:20:23.706Z,45.66
2019-04-21T03:22:53.432Z,48.25
2019-04-21T03:28:11.149Z,52.09
2019-04-21T03:33:42.198Z,54.17
2019-04-21T03:40:41.239Z,57.04
2019-04-21T03:43:21.193Z,57.91
2019-04-21T03:45:51.454Z,58.20
2019-04-21T03:48:36.740Z,58.76
2019-04-21T03:51:07.750Z,59.40
2019-04-21T03:53:48.077Z,60.00
2019-04-21T03:56:44.501Z,60.60
2019-04-21T04:01:50.979Z,61.61
2019-04-21T04:04:24.487Z,62.04
2019-04-21T04:09:37.488Z,63.34
2019-04-21T04:11:50.469Z,46.14
2019-04-21T04:14:34.210Z,45.90
2019-04-21T04:17:06.108Z,48.13
2019-04-21T04:19:38.938Z,50.32
2019-04-21T04:27:35.249Z,54.40
2019-04-21T04:29:56.798Z,55.65
2019-04-21T04:32:23.168Z,56.84
2019-04-21T04:35:03.423Z,57.59
2019-04-21T04:37:32.186Z,58.49
2019-04-21T04:40:10.932Z,59.13
2019-04-21T04:42:55.928Z,59.62
2019-04-21T04:45:23.769Z,60.36
2019-04-21T04:47:50.768Z,60.92
2019-04-21T04:50:31.644Z,61.91
2019-04-21T04:53:01.229Z,62.07
2019-04-21T04:55:33.866Z,62.34
2019-04-21T05:03:11.711Z,45.63
2019-04-21T05:11:44.560Z,52.32
2019-04-21T05:14:06.273Z,52.97
2019-04-21T05:19:22.643Z,54.90
2019-04-21T05:21:39.419Z,55.66
2019-04-21T05:24:08.099Z,56.32
2019-04-21T05:26:39.244Z,57.20
2019-04-21T05:29:10.827Z,57.54
2019-04-21T05:31:58.393Z,57.98
2019-04-21T05:34:42.675Z,57.76
2019-04-21T05:37:01.392Z,57.27
2019-04-21T05:39:36.115Z,57.09
2019-04-21T05:42:00.789Z,57.07
2019-04-21T05:44:58.099Z,57.15
2019-04-21T05:49:56.101Z,57.48
2019-04-21T05:52:26.528Z,57.37
2019-04-21T05:55:12.690Z,57.63
2019-04-21T05:57:43.134Z,57.81
2019-04-21T06:00:15.645Z,57.88
2019-04-21T06:02:50.971Z,58.43
2019-04-21T06:05:34.907Z,58.36
2019-04-21T06:08:00.426Z,58.43
2019-04-21T06:10:36.123Z,58.07
2019-04-21T06:13:13.062Z,58.02
2019-04-21T06:15:44.596Z,58.68
2019-04-21T06:18:20.240Z,58.10
2019-04-21T06:20:51.152Z,58.62
2019-04-21T06:23:25.733Z,58.49
2019-04-21T06:26:08.506Z,58.21
2019-04-21T06:28:35.969Z,55.34
2019-04-21T06:31:30.282Z,54.95
2019-04-21T06:33:40.560Z,54.98
2019-04-21T06:39:01.865Z,55.80
2019-04-21T06:44:05.103Z,54.23
2019-04-21T06:51:38.986Z,53.61
2019-04-21T06:54:16.106Z,53.86
2019-04-21T06:59:19.208Z,53.54
2019-04-21T07:02:02.920Z,51.61
2019-04-21T07:07:00.477Z,52.47
2019-04-21T07:09:31.896Z,52.30
2019-04-21T07:12:06.089Z,52.56
2019-04-21T07:17:22.630Z,49.91
2019-04-21T07:22:24.516Z,49.54
2019-04-21T07:24:57.356Z,50.43
2019-04-21T07:27:30.172Z,49.43
2019-04-21T07:30:05.261Z,49.42
2019-04-21T07:32:33.676Z,49.77
2019-04-21T07:35:08.431Z,50.24
2019-04-21T07:37:46.183Z,50.27
2019-04-21T07:40:09.444Z,50.33
2019-04-21T07:42:46.280Z,50.69
2019-04-21T07:45:16.859Z,50.81
2019-04-21T07:48:08.347Z,51.22
2019-04-21T07:51:04.422Z,51.00
2019-04-21T07:53:48.255Z,49.22
2019-04-21T07:55:51.219Z,49.71
2019-04-21T07:58:51.040Z,49.35
2019-04-21T08:01:18.070Z,48.23
2019-04-21T08:03:57.022Z,48.30
2019-04-21T08:06:29.526Z,48.56
2019-04-21T08:08:52.883Z,47.91
2019-04-21T08:11:25.386Z,47.53
2019-04-21T08:14:00.573Z,46.69
2019-04-21T08:16:36.793Z,47.78
2019-04-21T08:19:13.161Z,47.85
2019-04-21T08:21:55.794Z,48.49
2019-04-21T08:24:14.499Z,49.32
2019-04-21T08:26:51.435Z,49.35
2019-04-21T08:29:38.033Z,49.07
2019-04-21T08:32:02.602Z,49.82
2019-04-21T08:34:36.849Z,49.18
2019-04-21T08:37:04.215Z,48.01
2019-04-21T08:39:53.549Z,47.82
2019-04-21T08:42:11.904Z,47.73
2019-04-21T08:44:47.785Z,47.41
2019-04-21T08:47:20.706Z,47.83
2019-04-21T08:49:57.223Z,47.67
2019-04-21T08:52:37.032Z,46.59
2019-04-21T08:55:03.737Z,47.34
2019-04-21T08:58:15.527Z,47.09
2019-04-21T09:00:56.259Z,46.65
2019-04-21T09:03:14.628Z,46.49
2019-04-21T09:05:42.590Z,46.31
2019-04-21T09:08:20.210Z,46.42
2019-04-21T09:10:56.009Z,46.57
2019-04-21T09:13:25.909Z,46.92
2019-04-21T09:15:59.449Z,46.19
2019-04-21T09:18:28.418Z,46.19
2019-04-21T09:21:10.991Z,45.90
2019-04-21T09:23:38.234Z,45.86
2019-04-21T09:26:14.030Z,45.80
2019-04-21T09:28:39.487Z,46.24
2019-04-21T09:31:06.352Z,46.09
2019-04-21T09:33:41.297Z,45.92
2019-04-21T09:36:14.324Z,46.48
2019-04-21T09:38:45.708Z,46.72
2019-04-21T09:41:20.856Z,46.21
2019-04-21T09:43:53.668Z,46.04
2019-04-21T09:46:23.723Z,44.50
2019-04-21T09:49:02.006Z,44.76
2019-04-21T09:51:30.453Z,45.18
2019-04-21T09:54:09.827Z,44.79
2019-04-21T09:56:44.876Z,44.60
2019-04-21T09:59:19.359Z,44.62
2019-04-21T10:01:56.013Z,44.35
2019-04-21T10:04:16.960Z,43.15
2019-04-21T10:06:49.709Z,43.63
2019-04-21T10:09:21.869Z,43.33
2019-04-21T10:11:54.843Z,43.13
2019-04-21T10:14:26.739Z,43.29
2019-04-21T10:16:59.980Z,42.85
2019-04-21T10:19:31.962Z,42.95
2019-04-21T10:22:05.784Z,42.89
2019-04-21T10:24:38.344Z,42.91
2019-04-21T10:27:12.231Z,41.92
2019-04-21T10:29:45.391Z,43.07
2019-04-21T10:32:21.068Z,41.52
2019-04-21T10:34:51.030Z,41.63
2019-04-21T10:37:34.581Z,42.29
2019-04-21T10:39:57.724Z,42.67
2019-04-21T10:42:29.553Z,41.42
2019-04-21T10:45:01.495Z,41.20
2019-04-21T10:47:34.517Z,40.90
2019-04-21T10:50:11.232Z,40.79
2019-04-21T10:53:02.906Z,40.36
2019-04-21T10:55:53.318Z,40.78
2019-04-21T10:58:10.825Z,40.87
2019-04-21T11:00:46.067Z,40.22
2019-04-21T11:03:36.912Z,40.65
2019-04-21T11:06:12.710Z,39.97
2019-04-21T11:08:48.887Z,41.66
2019-04-21T11:11:19.515Z,40.36
2019-04-21T11:13:52.530Z,40.44
2019-04-21T11:16:24.539Z,40.28
2019-04-21T11:18:57.802Z,40.78
2019-04-21T11:21:31.129Z,40.10
2019-04-21T11:24:03.950Z,40.04
2019-04-21T11:26:36.050Z,40.38
2019-04-21T11:29:08.004Z,40.34
2019-04-21T11:31:41.034Z,39.95
2019-04-21T11:34:13.510Z,40.08
2019-04-21T11:36:45.959Z,39.82
2019-04-21T11:39:35.300Z,38.79
2019-04-21T11:41:55.781Z,37.97
2019-04-21T11:44:28.916Z,37.54
2019-04-21T11:47:02.550Z,37.05
2019-04-21T11:49:34.828Z,37.69
2019-04-21T11:52:07.076Z,38.34
2019-04-21T11:54:38.802Z,38.22
2019-04-21T11:57:15.196Z,37.34
2019-04-21T11:59:44.167Z,37.48
2019-04-21T12:02:17.269Z,37.69
2019-04-21T12:04:51.626Z,36.13
2019-04-21T12:07:23.455Z,37.30
2019-04-21T12:09:55.521Z,35.87
2019-04-21T12:12:27.547Z,36.96
2019-04-21T12:14:59.928Z,36.97
2019-04-21T12:17:32.098Z,37.83
2019-04-21T12:20:06.467Z,37.29
2019-04-21T12:22:39.115Z,36.40
2019-04-21T12:25:13.854Z,35.66
2019-04-21T12:27:45.780Z,36.45
2019-04-21T12:30:19.758Z,36.37
2019-04-21T12:33:02.383Z,35.66
2019-04-21T12:35:35.599Z,34.72
2019-04-21T12:38:08.794Z,33.47
2019-04-21T12:40:40.754Z,33.03
2019-04-21T12:43:12.659Z,30.60
2019-04-21T12:45:44.621Z,32.00
2019-04-21T12:48:17.924Z,31.57
2019-04-21T12:50:49.954Z,31.46
2019-04-21T12:53:23.405Z,30.39
2019-04-21T12:55:55.815Z,30.79
2019-04-21T12:58:29.088Z,29.11
2019-04-21T13:01:01.040Z,27.16
2019-04-21T13:03:34.098Z,27.07
2019-04-21T13:06:07.490Z,26.39
2019-04-21T13:08:51.877Z,25.34
2019-04-21T13:11:13.211Z,25.45
2019-04-21T13:13:45.968Z,25.22
2019-04-21T13:16:19.143Z,24.55
2019-04-21T13:18:51.299Z,25.23
2019-04-21T13:21:24.270Z,24.42
2019-04-21T13:23:56.901Z,23.11
2019-04-21T13:26:37.345Z,21.73
2019-04-21T13:29:02.754Z,21.97
2019-04-21T13:31:36.149Z,21.88
2019-04-21T13:34:08.338Z,20.95
2019-04-21T13:36:41.447Z,20.86
2019-04-21T13:42:07.598Z,20.19
2019-04-21T13:44:30.957Z,19.59
2019-04-21T13:47:03.081Z,20.17
2019-04-21T13:49:35.154Z,19.98
2019-04-21T13:52:07.145Z,18.09
2019-04-21T13:54:39.868Z,17.65
2019-04-21T13:57:12.511Z,17.30
2019-04-21T13:59:44.537Z,16.47
2019-04-21T14:02:16.447Z,17.53
2019-04-21T14:04:49.645Z,18.38
2019-04-21T14:07:21.764Z,17.82
2019-04-21T14:09:59.656Z,17.56
2019-04-21T14:12:28.106Z,17.09
2019-04-21T14:15:00.144Z,15.51
2019-04-21T14:17:32.864Z,16.37
2019-04-21T14:20:07.266Z,16.52
2019-04-21T14:22:40.046Z,14.11
2019-04-21T14:25:12.151Z,14.61
2019-04-21T14:27:45.791Z,14.89
2019-04-21T14:30:18.684Z,15.19
2019-04-21T14:32:51.757Z,14.64
2019-04-21T14:35:25.181Z,13.92
2019-04-21T14:37:58.190Z,14.18
2019-04-21T14:40:33.288Z,14.11
2019-04-21T14:43:03.946Z,14.60
2019-04-21T14:45:40.799Z,14.26
2019-04-21T14:48:21.252Z,14.26
2019-04-21T14:51:00.468Z,14.16
2019-04-21T14:53:34.087Z,13.67
2019-04-21T14:56:07.172Z,13.57
2019-04-21T14:58:39.259Z,13.96
2019-04-21T15:01:11.284Z,12.94
2019-04-21T15:03:43.756Z,13.25
2019-04-21T15:06:15.773Z,12.14
2019-04-21T15:08:49.079Z,13.28
2019-04-21T15:11:22.166Z,13.35
2019-04-21T15:13:53.965Z,12.21
2019-04-21T15:16:26.890Z,12.57
2019-04-21T15:18:59.066Z,11.49
2019-04-21T15:21:31.324Z,11.71
2019-04-21T15:24:04.518Z,11.99
2019-04-21T15:26:37.966Z,11.94
2019-04-21T15:29:10.790Z,12.57
2019-04-21T15:31:44.741Z,12.49
2019-04-21T15:34:17.463Z,12.43
2019-04-21T15:36:50.329Z,12.24
2019-04-21T15:39:23.530Z,12.30
2019-04-21T15:41:56.690Z,12.12
2019-04-21T15:44:28.452Z,12.08
2019-04-21T15:47:00.243Z,12.08
2019-04-21T15:49:56.981Z,12.24
2019-04-21T15:52:23.054Z,12.04
2019-04-21T15:54:57.005Z,11.70
2019-04-21T15:57:42.716Z,11.67
2019-04-21T16:00:32.341Z,12.34
2019-04-21T16:03:04.582Z,11.89
2019-04-21T16:05:37.119Z,11.51
2019-04-21T16:08:10.137Z,11.35
2019-04-21T16:10:50.163Z,11.82
2019-04-21T16:13:16.105Z,11.71
2019-04-21T16:15:50.452Z,12.40
2019-04-21T16:18:22.606Z,12.62
2019-04-21T16:20:55.778Z,12.96
2019-04-21T16:23:28.658Z,12.54
2019-04-21T16:26:02.445Z,12.52
2019-04-21T16:28:35.179Z,13.26
2019-04-21T16:31:07.119Z,13.31
2019-04-21T16:33:38.971Z,13.36
2019-04-21T16:36:12.901Z,14.40
2019-04-21T16:38:44.510Z,14.81
2019-04-21T16:41:16.284Z,14.76
2019-04-21T16:43:49.256Z,15.68
2019-04-21T16:46:21.231Z,16.03
2019-04-21T16:48:53.783Z,16.37
2019-04-21T16:51:26.416Z,17.01
2019-04-21T16:54:00.140Z,17.23
2019-04-21T16:56:33.687Z,17.93
2019-04-21T16:59:08.548Z,18.60
2019-04-21T17:01:40.720Z,19.14
2019-04-21T17:04:12.824Z,19.16
2019-04-21T17:06:45.040Z,20.05
2019-04-21T17:09:17.071Z,20.67
2019-04-21T17:11:52.332Z,21.00
2019-04-21T17:14:37.088Z,21.83
2019-04-21T17:17:20.494Z,22.55
2019-04-21T17:19:37.916Z,22.86
2019-04-21T17:22:04.077Z,23.27
2019-04-21T17:24:35.973Z,23.90
2019-04-21T17:27:09.029Z,24.41
2019-04-21T17:29:41.068Z,24.88
2019-04-21T17:32:14.199Z,25.32
2019-04-21T17:34:47.642Z,25.79
2019-04-21T17:37:22.229Z,25.86
2019-04-21T17:39:54.510Z,26.14
2019-04-21T17:42:34.477Z,26.81
2019-04-21T17:45:01.301Z,27.49
2019-04-21T17:47:44.892Z,28.26
2019-04-21T17:50:11.737Z,28.51
2019-04-21T17:52:50.519Z,29.02
2019-04-21T17:55:28.281Z,29.92
2019-04-21T17:58:11.593Z,30.67
2019-04-21T18:03:40.399Z,30.18
2019-04-21T18:06:00.838Z,30.68
2019-04-21T18:08:37.102Z,30.77
2019-04-21T18:11:01.199Z,31.49
2019-04-21T18:13:26.598Z,31.97
2019-04-21T18:16:11.009Z,32.83
2019-04-21T18:18:32.920Z,33.26
2019-04-21T18:21:14.444Z,33.57
2019-04-21T18:23:57.414Z,34.46
2019-04-21T18:26:35.471Z,34.64
2019-04-21T18:28:57.715Z,34.60
2019-04-21T18:31:33.818Z,35.38
2019-04-21T18:34:26.144Z,35.30
2019-04-21T18:36:59.714Z,36.55
2019-04-21T18:39:49.556Z,36.31
2019-04-21T18:42:31.297Z,36.66
2019-04-21T18:45:34.089Z,36.95
2019-04-21T18:47:53.904Z,36.41
2019-04-21T18:50:41.776Z,37.26
2019-04-21T18:53:41.436Z,38.21
2019-04-21T18:56:04.896Z,38.78
2019-04-21T18:58:32.669Z,39.03
2019-04-21T19:01:11.754Z,40.06
2019-04-21T19:03:43.110Z,40.75
2019-04-21T19:06:18.825Z,40.35
2019-04-21T19:09:07.712Z,40.59
2019-04-21T19:11:32.860Z,40.78
2019-04-21T19:17:04.338Z,40.40
2019-04-21T19:22:04.624Z,41.64
2019-04-21T19:24:54.979Z,41.53
2019-04-21T19:27:15.660Z,41.63
2019-04-21T19:29:57.255Z,41.11
2019-04-21T19:32:21.483Z,41.05
2019-04-21T19:34:39.856Z,40.67
2019-04-21T19:37:13.425Z,40.40
2019-04-21T19:39:53.940Z,40.09
2019-04-21T19:42:25.512Z,39.13
2019-04-21T19:45:08.894Z,38.83
2019-04-21T19:47:44.960Z,38.78
2019-04-21T19:50:19.776Z,38.31
2019-04-21T19:52:41.088Z,37.93
2019-04-21T19:55:04.177Z,38.03
2019-04-21T19:57:36.718Z,37.98
2019-04-21T20:00:11.513Z,37.84
2019-04-21T20:02:44.748Z,37.85
2019-04-21T20:05:29.788Z,37.69
2019-04-21T20:08:08.327Z,37.54
2019-04-21T20:10:44.154Z,37.42
2019-04-21T20:13:26.129Z,37.43
2019-04-21T20:15:50.956Z,37.53
2019-04-21T20:18:18.544Z,37.43
2019-04-21T20:20:39.657Z,37.56
2019-04-21T20:23:16.991Z,37.54
2019-04-21T20:25:49.820Z,37.60
2019-04-21T20:28:34.498Z,37.34
2019-04-21T20:31:14.708Z,37.20
2019-04-21T20:33:59.248Z,37.18
2019-04-21T20:36:25.197Z,37.20
2019-04-21T20:38:47.081Z,37.05
2019-04-21T20:41:25.708Z,37.10
2019-04-21T20:44:02.217Z,36.89
2019-04-21T20:46:36.806Z,36.86
2019-04-21T20:49:04.204Z,36.88
2019-04-21T20:51:40.367Z,36.71
2019-04-21T20:54:16.008Z,36.64
2019-04-21T20:56:49.614Z,36.61
2019-04-21T20:59:19.511Z,36.65
2019-04-21T21:01:54.938Z,36.87
2019-04-21T21:04:21.834Z,36.78
2019-04-21T21:07:09.174Z,36.77
2019-04-21T21:09:33.777Z,36.87
2019-04-21T21:12:24.468Z,36.74
2019-04-21T21:14:40.766Z,36.82
2019-04-21T21:17:26.952Z,36.83
2019-04-21T21:19:55.132Z,36.89
2019-04-21T21:22:14.859Z,36.81
2019-04-21T21:24:55.771Z,37.13
2019-04-21T21:27:27.955Z,37.29
2019-04-21T21:30:00.669Z,37.21
2019-04-21T21:32:37.382Z,37.38
2019-04-21T21:35:13.740Z,37.43
2019-04-21T21:37:52.049Z,37.21
2019-04-21T21:40:22.191Z,37.16
2019-04-21T21:42:40.337Z,37.51
2019-04-21T21:45:15.968Z,37.96
2019-04-21T21:48:00.997Z,38.14
2019-04-21T21:50:26.146Z,38.19
2019-04-21T21:53:00.574Z,38.40
2019-04-21T21:55:25.603Z,38.48
2019-04-21T21:58:01.930Z,38.74
2019-04-21T22:00:37.023Z,38.97
2019-04-21T22:03:17.850Z,39.04
2019-04-21T22:05:48.370Z,39.36
2019-04-21T22:08:16.353Z,39.47
2019-04-21T22:10:49.390Z,39.74
2019-04-21T22:13:27.029Z,40.03
2019-04-21T22:15:59.866Z,40.24
2019-04-21T22:18:43.120Z,40.56
2019-04-21T22:21:15.958Z,40.77
2019-04-21T22:23:43.848Z,40.88
2019-04-21T22:26:09.574Z,40.96
2019-04-21T22:28:41.522Z,41.17
2019-04-21T22:31:20.721Z,41.27
2019-04-21T22:33:51.281Z,41.56
2019-04-21T22:36:34.282Z,41.93
2019-04-21T22:39:13.056Z,42.18
2019-04-21T22:41:35.753Z,42.19
2019-04-21T22:44:02.487Z,42.37
2019-04-21T22:46:36.047Z,42.51
2019-04-21T22:49:10.696Z,42.89
2019-04-21T22:51:46.472Z,43.02
2019-04-21T22:54:20.823Z,43.29
2019-04-21T22:56:57.120Z,43.47
2019-04-21T22:59:24.352Z,43.77
2019-04-21T23:01:55.823Z,43.85
2019-04-21T23:04:36.833Z,44.18
2019-04-21T23:07:10.094Z,44.24
2019-04-21T23:09:37.267Z,44.46
2019-04-21T23:12:12.453Z,44.85
2019-04-21T23:14:52.215Z,45.16
2019-04-21T23:17:32.364Z,45.38
2019-04-21T23:20:10.506Z,45.65
2019-04-21T23:22:56.272Z,45.93
2019-04-21T23:25:18.162Z,46.31
2019-04-21T23:27:46.996Z,46.46
2019-04-21T23:30:33.805Z,46.50
2019-04-21T23:32:50.426Z,46.72
2019-04-21T23:35:25.391Z,47.19
2019-04-21T23:37:52.950Z,47.36
2019-04-21T23:40:25.450Z,47.55
2019-04-21T23:43:00.144Z,47.79
2019-04-21T23:45:33.999Z,48.06
2019-04-21T23:48:18.539Z,48.38
2019-04-21T23:50:45.916Z,48.76
2019-04-21T23:53:11.075Z,49.03
2019-04-21T23:55:43.412Z,49.36
2019-04-21T23:58:22.216Z,49.55
